sensor_id;sensor_type;location;lat;lon;timestamp;P1;durP1;ratioP1;P2;durP2;ratioP2
53044;SDS011;38930;52.766;6.884;2022-12-18T00:02:06;95.03;;;31.08;;
53044;SDS011;38930;52.766;6.884;2022-12-18T00:04:32;85.43;;;28.85;;
53044;SDS011;38930;52.766;6.884;2022-12-18T00:06:58;82.25;;;29.00;;
53044;SDS011;38930;52.766;6.884;2022-12-18T00:09:23;93.17;;;33.47;;
53044;SDS011;38930;52.766;6.884;2022-12-18T00:11:49;89.53;;;31.23;;
53044;SDS011;38930;52.766;6.884;2022-12-18T00:14:15;92.72;;;29.40;;
53044;SDS011;38930;52.766;6.884;2022-12-18T00:16:42;92.17;;;29.03;;
53044;SDS011;38930;52.766;6.884;2022-12-18T00:19:09;87.97;;;30.65;;
53044;SDS011;38930;52.766;6.884;2022-12-18T00:21:35;80.65;;;29.58;;
53044;SDS011;38930;52.766;6.884;2022-12-18T00:24:01;89.53;;;30.37;;
53044;SDS011;38930;52.766;6.884;2022-12-18T00:26:30;88.50;;;31.52;;
53044;SDS011;38930;52.766;6.884;2022-12-18T00:29:01;76.70;;;28.15;;
53044;SDS011;38930;52.766;6.884;2022-12-18T00:31:31;85.93;;;28.60;;
53044;SDS011;38930;52.766;6.884;2022-12-18T00:33:58;78.43;;;29.60;;
53044;SDS011;38930;52.766;6.884;2022-12-18T00:36:24;87.60;;;29.42;;
53044;SDS011;38930;52.766;6.884;2022-12-18T00:38:52;86.13;;;31.80;;
53044;SDS011;38930;52.766;6.884;2022-12-18T00:41:19;79.13;;;28.40;;
53044;SDS011;38930;52.766;6.884;2022-12-18T00:44:04;83.90;;;30.08;;
53044;SDS011;38930;52.766;6.884;2022-12-18T00:46:31;84.78;;;29.25;;
53044;SDS011;38930;52.766;6.884;2022-12-18T00:48:57;77.40;;;28.17;;
53044;SDS011;38930;52.766;6.884;2022-12-18T00:51:24;75.80;;;29.73;;
53044;SDS011;38930;52.766;6.884;2022-12-18T00:53:50;75.55;;;28.80;;
53044;SDS011;38930;52.766;6.884;2022-12-18T00:56:15;83.07;;;28.90;;
53044;SDS011;38930;52.766;6.884;2022-12-18T00:58:41;70.80;;;27.35;;
53044;SDS011;38930;52.766;6.884;2022-12-18T01:01:07;76.53;;;27.60;;
53044;SDS011;38930;52.766;6.884;2022-12-18T01:03:33;77.95;;;27.52;;
53044;SDS011;38930;52.766;6.884;2022-12-18T01:05:59;70.70;;;26.70;;
53044;SDS011;38930;52.766;6.884;2022-12-18T01:08:24;75.43;;;26.37;;
53044;SDS011;38930;52.766;6.884;2022-12-18T01:10:50;80.50;;;25.23;;
53044;SDS011;38930;52.766;6.884;2022-12-18T01:13:16;73.53;;;27.07;;
53044;SDS011;38930;52.766;6.884;2022-12-18T01:15:47;71.20;;;26.07;;
53044;SDS011;38930;52.766;6.884;2022-12-18T01:18:16;81.40;;;28.40;;
53044;SDS011;38930;52.766;6.884;2022-12-18T01:20:42;71.63;;;26.85;;
53044;SDS011;38930;52.766;6.884;2022-12-18T01:23:08;72.30;;;28.25;;
53044;SDS011;38930;52.766;6.884;2022-12-18T01:25:36;84.10;;;28.90;;
53044;SDS011;38930;52.766;6.884;2022-12-18T01:28:01;92.60;;;30.40;;
53044;SDS011;38930;52.766;6.884;2022-12-18T01:30:27;92.10;;;29.17;;
53044;SDS011;38930;52.766;6.884;2022-12-18T01:32:53;101.13;;;30.37;;
53044;SDS011;38930;52.766;6.884;2022-12-18T01:35:19;89.30;;;30.00;;
53044;SDS011;38930;52.766;6.884;2022-12-18T01:37:45;100.63;;;31.90;;
53044;SDS011;38930;52.766;6.884;2022-12-18T01:40:10;93.73;;;29.60;;
53044;SDS011;38930;52.766;6.884;2022-12-18T01:42:36;94.13;;;30.73;;
53044;SDS011;38930;52.766;6.884;2022-12-18T01:47:47;86.55;;;31.05;;
53044;SDS011;38930;52.766;6.884;2022-12-18T01:52:54;84.78;;;28.15;;
53044;SDS011;38930;52.766;6.884;2022-12-18T01:55:23;69.60;;;26.50;;
53044;SDS011;38930;52.766;6.884;2022-12-18T01:57:52;86.22;;;28.63;;
53044;SDS011;38930;52.766;6.884;2022-12-18T02:00:20;73.75;;;26.88;;
53044;SDS011;38930;52.766;6.884;2022-12-18T02:02:47;71.80;;;26.90;;
53044;SDS011;38930;52.766;6.884;2022-12-18T02:05:15;67.00;;;24.90;;
53044;SDS011;38930;52.766;6.884;2022-12-18T02:10:35;62.13;;;24.30;;
53044;SDS011;38930;52.766;6.884;2022-12-18T02:16:34;56.65;;;23.73;;
53044;SDS011;38930;52.766;6.884;2022-12-18T02:19:15;54.88;;;24.95;;
53044;SDS011;38930;52.766;6.884;2022-12-18T02:27:49;50.58;;;22.13;;
53044;SDS011;38930;52.766;6.884;2022-12-18T02:30:16;59.13;;;23.58;;
53044;SDS011;38930;52.766;6.884;2022-12-18T02:32:45;60.70;;;22.25;;
53044;SDS011;38930;52.766;6.884;2022-12-18T02:35:16;51.28;;;20.63;;
53044;SDS011;38930;52.766;6.884;2022-12-18T02:37:48;50.05;;;21.17;;
53044;SDS011;38930;52.766;6.884;2022-12-18T02:40:19;57.08;;;22.05;;
53044;SDS011;38930;52.766;6.884;2022-12-18T02:42:48;51.97;;;20.98;;
53044;SDS011;38930;52.766;6.884;2022-12-18T02:45:14;46.63;;;19.50;;
53044;SDS011;38930;52.766;6.884;2022-12-18T02:47:40;61.27;;;22.47;;
53044;SDS011;38930;52.766;6.884;2022-12-18T02:52:52;50.95;;;20.38;;
53044;SDS011;38930;52.766;6.884;2022-12-18T02:58:19;53.78;;;20.17;;
53044;SDS011;38930;52.766;6.884;2022-12-18T03:01:21;48.45;;;20.38;;
53044;SDS011;38930;52.766;6.884;2022-12-18T03:06:26;52.05;;;20.58;;
53044;SDS011;38930;52.766;6.884;2022-12-18T03:08:59;59.97;;;22.25;;
53044;SDS011;38930;52.766;6.884;2022-12-18T03:11:32;50.45;;;20.70;;
53044;SDS011;38930;52.766;6.884;2022-12-18T03:14:20;51.97;;;21.38;;
53044;SDS011;38930;52.766;6.884;2022-12-18T03:16:52;49.55;;;20.15;;
53044;SDS011;38930;52.766;6.884;2022-12-18T03:19:22;48.38;;;19.92;;
53044;SDS011;38930;52.766;6.884;2022-12-18T03:21:54;52.90;;;21.05;;
53044;SDS011;38930;52.766;6.884;2022-12-18T03:24:22;47.83;;;20.38;;
53044;SDS011;38930;52.766;6.884;2022-12-18T03:26:52;55.58;;;19.45;;
53044;SDS011;38930;52.766;6.884;2022-12-18T03:29:27;43.88;;;18.75;;
53044;SDS011;38930;52.766;6.884;2022-12-18T03:34:28;45.95;;;19.95;;
53044;SDS011;38930;52.766;6.884;2022-12-18T03:36:56;47.30;;;19.23;;
53044;SDS011;38930;52.766;6.884;2022-12-18T03:39:22;45.45;;;20.50;;
53044;SDS011;38930;52.766;6.884;2022-12-18T03:44:26;44.35;;;18.85;;
53044;SDS011;38930;52.766;6.884;2022-12-18T03:55:22;42.83;;;18.35;;
53044;SDS011;38930;52.766;6.884;2022-12-18T03:57:50;53.15;;;19.73;;
53044;SDS011;38930;52.766;6.884;2022-12-18T04:00:18;41.58;;;18.88;;
53044;SDS011;38930;52.766;6.884;2022-12-18T04:02:46;45.13;;;18.50;;
53044;SDS011;38930;52.766;6.884;2022-12-18T04:05:18;47.28;;;18.10;;
53044;SDS011;38930;52.766;6.884;2022-12-18T04:07:45;41.70;;;17.95;;
53044;SDS011;38930;52.766;6.884;2022-12-18T04:10:13;41.63;;;18.20;;
53044;SDS011;38930;52.766;6.884;2022-12-18T04:12:42;46.15;;;19.55;;
53044;SDS011;38930;52.766;6.884;2022-12-18T04:15:08;41.90;;;17.37;;
53044;SDS011;38930;52.766;6.884;2022-12-18T04:17:35;51.35;;;18.35;;
53044;SDS011;38930;52.766;6.884;2022-12-18T04:20:00;40.67;;;17.57;;
53044;SDS011;38930;52.766;6.884;2022-12-18T04:22:26;32.83;;;16.80;;
53044;SDS011;38930;52.766;6.884;2022-12-18T04:24:52;33.07;;;16.00;;
53044;SDS011;38930;52.766;6.884;2022-12-18T04:27:17;41.60;;;16.50;;
53044;SDS011;38930;52.766;6.884;2022-12-18T04:29:43;30.77;;;15.00;;
53044;SDS011;38930;52.766;6.884;2022-12-18T04:32:09;43.17;;;16.67;;
53044;SDS011;38930;52.766;6.884;2022-12-18T04:34:35;32.17;;;15.57;;
53044;SDS011;38930;52.766;6.884;2022-12-18T04:37:00;35.97;;;16.47;;
53044;SDS011;38930;52.766;6.884;2022-12-18T04:39:26;36.53;;;16.07;;
53044;SDS011;38930;52.766;6.884;2022-12-18T04:41:52;37.43;;;16.07;;
53044;SDS011;38930;52.766;6.884;2022-12-18T04:44:17;33.80;;;15.97;;
53044;SDS011;38930;52.766;6.884;2022-12-18T04:46:43;42.03;;;16.87;;
53044;SDS011;38930;52.766;6.884;2022-12-18T04:49:09;36.67;;;16.57;;
53044;SDS011;38930;52.766;6.884;2022-12-18T04:54:01;40.80;;;15.65;;
53044;SDS011;38930;52.766;6.884;2022-12-18T04:56:27;29.67;;;14.70;;
53044;SDS011;38930;52.766;6.884;2022-12-18T04:58:52;40.97;;;17.00;;
53044;SDS011;38930;52.766;6.884;2022-12-18T05:01:18;34.33;;;15.17;;
53044;SDS011;38930;52.766;6.884;2022-12-18T05:03:44;33.23;;;15.67;;
53044;SDS011;38930;52.766;6.884;2022-12-18T05:06:09;33.20;;;14.90;;
53044;SDS011;38930;52.766;6.884;2022-12-18T05:08:35;38.30;;;15.93;;
53044;SDS011;38930;52.766;6.884;2022-12-18T05:11:02;32.30;;;15.63;;
53044;SDS011;38930;52.766;6.884;2022-12-18T05:13:29;34.10;;;15.85;;
53044;SDS011;38930;52.766;6.884;2022-12-18T05:15:55;34.53;;;16.20;;
53044;SDS011;38930;52.766;6.884;2022-12-18T05:18:22;30.67;;;14.77;;
53044;SDS011;38930;52.766;6.884;2022-12-18T05:20:49;32.75;;;15.55;;
53044;SDS011;38930;52.766;6.884;2022-12-18T05:23:15;34.22;;;15.68;;
53044;SDS011;38930;52.766;6.884;2022-12-18T05:25:41;33.20;;;15.13;;
53044;SDS011;38930;52.766;6.884;2022-12-18T05:28:07;36.23;;;15.47;;
53044;SDS011;38930;52.766;6.884;2022-12-18T05:30:33;35.47;;;15.37;;
53044;SDS011;38930;52.766;6.884;2022-12-18T05:32:58;39.07;;;15.97;;
53044;SDS011;38930;52.766;6.884;2022-12-18T05:35:24;35.03;;;16.90;;
53044;SDS011;38930;52.766;6.884;2022-12-18T05:37:50;34.63;;;14.43;;
53044;SDS011;38930;52.766;6.884;2022-12-18T05:40:15;34.50;;;14.57;;
53044;SDS011;38930;52.766;6.884;2022-12-18T05:42:41;33.27;;;16.00;;
53044;SDS011;38930;52.766;6.884;2022-12-18T05:45:06;36.27;;;16.33;;
53044;SDS011;38930;52.766;6.884;2022-12-18T05:47:32;30.77;;;14.87;;
53044;SDS011;38930;52.766;6.884;2022-12-18T05:49:58;36.15;;;15.18;;
53044;SDS011;38930;52.766;6.884;2022-12-18T05:52:24;31.77;;;14.93;;
53044;SDS011;38930;52.766;6.884;2022-12-18T05:54:50;30.47;;;14.57;;
53044;SDS011;38930;52.766;6.884;2022-12-18T05:57:15;34.73;;;15.67;;
53044;SDS011;38930;52.766;6.884;2022-12-18T05:59:41;33.90;;;15.57;;
53044;SDS011;38930;52.766;6.884;2022-12-18T06:02:07;30.73;;;14.63;;
53044;SDS011;38930;52.766;6.884;2022-12-18T06:04:32;34.47;;;14.37;;
53044;SDS011;38930;52.766;6.884;2022-12-18T06:06:58;30.70;;;15.50;;
53044;SDS011;38930;52.766;6.884;2022-12-18T06:09:24;34.50;;;15.13;;
53044;SDS011;38930;52.766;6.884;2022-12-18T06:11:51;27.27;;;13.80;;
53044;SDS011;38930;52.766;6.884;2022-12-18T06:14:17;30.98;;;14.50;;
53044;SDS011;38930;52.766;6.884;2022-12-18T06:16:43;32.13;;;15.43;;
53044;SDS011;38930;52.766;6.884;2022-12-18T06:19:14;28.20;;;13.83;;
53044;SDS011;38930;52.766;6.884;2022-12-18T06:21:41;28.85;;;14.73;;
53044;SDS011;38930;52.766;6.884;2022-12-18T06:24:07;28.20;;;13.43;;
53044;SDS011;38930;52.766;6.884;2022-12-18T06:26:32;30.70;;;13.93;;
53044;SDS011;38930;52.766;6.884;2022-12-18T06:28:58;29.20;;;14.80;;
53044;SDS011;38930;52.766;6.884;2022-12-18T06:31:24;34.90;;;14.73;;
53044;SDS011;38930;52.766;6.884;2022-12-18T06:33:50;28.98;;;14.82;;
53044;SDS011;38930;52.766;6.884;2022-12-18T06:36:16;29.57;;;13.73;;
53044;SDS011;38930;52.766;6.884;2022-12-18T06:38:42;25.03;;;13.27;;
53044;SDS011;38930;52.766;6.884;2022-12-18T06:41:15;31.20;;;13.52;;
53044;SDS011;38930;52.766;6.884;2022-12-18T06:43:43;26.17;;;13.02;;
53044;SDS011;38930;52.766;6.884;2022-12-18T06:46:09;32.47;;;14.03;;
53044;SDS011;38930;52.766;6.884;2022-12-18T06:48:35;26.20;;;13.40;;
53044;SDS011;38930;52.766;6.884;2022-12-18T06:51:02;34.40;;;12.83;;
53044;SDS011;38930;52.766;6.884;2022-12-18T06:53:28;27.42;;;14.07;;
53044;SDS011;38930;52.766;6.884;2022-12-18T06:56:04;30.13;;;14.70;;
53044;SDS011;38930;52.766;6.884;2022-12-18T07:01:01;26.35;;;14.15;;
53044;SDS011;38930;52.766;6.884;2022-12-18T07:03:31;28.73;;;14.20;;
53044;SDS011;38930;52.766;6.884;2022-12-18T07:05:57;29.80;;;14.80;;
53044;SDS011;38930;52.766;6.884;2022-12-18T07:08:23;25.50;;;13.93;;
53044;SDS011;38930;52.766;6.884;2022-12-18T07:10:49;28.27;;;15.17;;
53044;SDS011;38930;52.766;6.884;2022-12-18T07:13:15;28.03;;;13.77;;
53044;SDS011;38930;52.766;6.884;2022-12-18T07:18:07;30.60;;;14.88;;
53044;SDS011;38930;52.766;6.884;2022-12-18T07:20:32;29.53;;;16.30;;
53044;SDS011;38930;52.766;6.884;2022-12-18T07:22:58;27.23;;;15.13;;
53044;SDS011;38930;52.766;6.884;2022-12-18T07:25:26;25.27;;;13.50;;
53044;SDS011;38930;52.766;6.884;2022-12-18T07:27:53;27.80;;;13.38;;
53044;SDS011;38930;52.766;6.884;2022-12-18T07:30:19;32.13;;;15.23;;
53044;SDS011;38930;52.766;6.884;2022-12-18T07:32:45;28.60;;;16.23;;
53044;SDS011;38930;52.766;6.884;2022-12-18T07:35:10;39.37;;;18.80;;
53044;SDS011;38930;52.766;6.884;2022-12-18T07:37:36;35.17;;;17.43;;
53044;SDS011;38930;52.766;6.884;2022-12-18T07:40:01;32.00;;;15.90;;
53044;SDS011;38930;52.766;6.884;2022-12-18T07:42:27;25.07;;;13.73;;
53044;SDS011;38930;52.766;6.884;2022-12-18T07:44:56;27.60;;;13.30;;
53044;SDS011;38930;52.766;6.884;2022-12-18T07:47:22;26.95;;;13.70;;
53044;SDS011;38930;52.766;6.884;2022-12-18T07:49:48;27.00;;;12.63;;
53044;SDS011;38930;52.766;6.884;2022-12-18T07:52:13;23.50;;;12.40;;
53044;SDS011;38930;52.766;6.884;2022-12-18T07:54:39;21.43;;;12.13;;
53044;SDS011;38930;52.766;6.884;2022-12-18T07:57:05;22.27;;;12.35;;
53044;SDS011;38930;52.766;6.884;2022-12-18T07:59:31;23.98;;;12.77;;
53044;SDS011;38930;52.766;6.884;2022-12-18T08:01:57;21.90;;;12.00;;
53044;SDS011;38930;52.766;6.884;2022-12-18T08:04:23;22.83;;;10.70;;
53044;SDS011;38930;52.766;6.884;2022-12-18T08:06:49;20.75;;;11.80;;
53044;SDS011;38930;52.766;6.884;2022-12-18T08:09:15;25.37;;;12.07;;
53044;SDS011;38930;52.766;6.884;2022-12-18T08:11:41;17.90;;;11.27;;
53044;SDS011;38930;52.766;6.884;2022-12-18T08:14:06;19.50;;;11.67;;
53044;SDS011;38930;52.766;6.884;2022-12-18T08:16:32;23.60;;;11.87;;
53044;SDS011;38930;52.766;6.884;2022-12-18T08:18:58;17.30;;;10.40;;
53044;SDS011;38930;52.766;6.884;2022-12-18T08:21:25;21.10;;;11.07;;
53044;SDS011;38930;52.766;6.884;2022-12-18T08:23:53;22.98;;;10.88;;
53044;SDS011;38930;52.766;6.884;2022-12-18T08:26:20;17.10;;;10.80;;
53044;SDS011;38930;52.766;6.884;2022-12-18T08:28:47;23.88;;;10.35;;
53044;SDS011;38930;52.766;6.884;2022-12-18T08:31:14;15.65;;;9.93;;
53044;SDS011;38930;52.766;6.884;2022-12-18T08:33:40;20.77;;;10.10;;
53044;SDS011;38930;52.766;6.884;2022-12-18T08:36:06;17.77;;;10.45;;
53044;SDS011;38930;52.766;6.884;2022-12-18T08:38:33;19.98;;;11.48;;
53044;SDS011;38930;52.766;6.884;2022-12-18T08:40:59;15.27;;;9.03;;
53044;SDS011;38930;52.766;6.884;2022-12-18T08:43:29;19.75;;;9.15;;
53044;SDS011;38930;52.766;6.884;2022-12-18T08:46:15;20.85;;;10.93;;
53044;SDS011;38930;52.766;6.884;2022-12-18T08:51:06;18.90;;;9.60;;
53044;SDS011;38930;52.766;6.884;2022-12-18T08:53:31;17.60;;;9.93;;
53044;SDS011;38930;52.766;6.884;2022-12-18T08:55:57;15.57;;;8.17;;
53044;SDS011;38930;52.766;6.884;2022-12-18T08:58:23;14.07;;;8.43;;
53044;SDS011;38930;52.766;6.884;2022-12-18T09:00:48;14.20;;;8.33;;
53044;SDS011;38930;52.766;6.884;2022-12-18T09:03:15;13.37;;;7.10;;
53044;SDS011;38930;52.766;6.884;2022-12-18T09:05:42;11.73;;;8.35;;
53044;SDS011;38930;52.766;6.884;2022-12-18T09:08:08;15.47;;;8.07;;
53044;SDS011;38930;52.766;6.884;2022-12-18T09:10:34;16.03;;;8.43;;
53044;SDS011;38930;52.766;6.884;2022-12-18T09:13:05;12.52;;;7.32;;
53044;SDS011;38930;52.766;6.884;2022-12-18T09:15:31;9.83;;;6.80;;
53044;SDS011;38930;52.766;6.884;2022-12-18T09:17:57;13.98;;;7.82;;
53044;SDS011;38930;52.766;6.884;2022-12-18T09:20:22;14.97;;;8.03;;
53044;SDS011;38930;52.766;6.884;2022-12-18T09:22:48;13.57;;;8.07;;
53044;SDS011;38930;52.766;6.884;2022-12-18T09:25:13;14.03;;;7.43;;
53044;SDS011;38930;52.766;6.884;2022-12-18T09:27:39;9.93;;;6.13;;
53044;SDS011;38930;52.766;6.884;2022-12-18T09:30:05;11.53;;;7.43;;
53044;SDS011;38930;52.766;6.884;2022-12-18T09:32:31;15.38;;;8.27;;
53044;SDS011;38930;52.766;6.884;2022-12-18T09:34:56;15.13;;;8.02;;
53044;SDS011;38930;52.766;6.884;2022-12-18T09:37:22;13.70;;;7.27;;
53044;SDS011;38930;52.766;6.884;2022-12-18T09:39:48;13.10;;;8.47;;
53044;SDS011;38930;52.766;6.884;2022-12-18T09:42:18;10.93;;;7.37;;
53044;SDS011;38930;52.766;6.884;2022-12-18T09:44:49;13.25;;;7.65;;
53044;SDS011;38930;52.766;6.884;2022-12-18T09:47:22;11.15;;;7.28;;
53044;SDS011;38930;52.766;6.884;2022-12-18T09:49:53;12.32;;;7.78;;
53044;SDS011;38930;52.766;6.884;2022-12-18T09:52:28;11.75;;;7.47;;
53044;SDS011;38930;52.766;6.884;2022-12-18T09:55:03;11.75;;;7.82;;
53044;SDS011;38930;52.766;6.884;2022-12-18T09:57:31;11.32;;;7.40;;
53044;SDS011;38930;52.766;6.884;2022-12-18T10:00:02;11.82;;;6.70;;
53044;SDS011;38930;52.766;6.884;2022-12-18T10:02:39;12.70;;;6.78;;
53044;SDS011;38930;52.766;6.884;2022-12-18T10:05:06;11.90;;;6.65;;
53044;SDS011;38930;52.766;6.884;2022-12-18T10:07:45;13.43;;;7.05;;
53044;SDS011;38930;52.766;6.884;2022-12-18T10:10:19;13.32;;;7.10;;
53044;SDS011;38930;52.766;6.884;2022-12-18T10:13:06;12.80;;;6.95;;
53044;SDS011;38930;52.766;6.884;2022-12-18T10:21:09;8.57;;;6.50;;
53044;SDS011;38930;52.766;6.884;2022-12-18T10:26:22;10.55;;;6.90;;
53044;SDS011;38930;52.766;6.884;2022-12-18T10:28:48;10.80;;;6.30;;
53044;SDS011;38930;52.766;6.884;2022-12-18T10:31:18;10.82;;;7.05;;
53044;SDS011;38930;52.766;6.884;2022-12-18T10:33:46;13.40;;;6.97;;
53044;SDS011;38930;52.766;6.884;2022-12-18T10:36:12;10.38;;;6.25;;
53044;SDS011;38930;52.766;6.884;2022-12-18T10:38:38;9.50;;;6.20;;
53044;SDS011;38930;52.766;6.884;2022-12-18T10:41:05;12.38;;;6.93;;
53044;SDS011;38930;52.766;6.884;2022-12-18T10:44:12;10.85;;;6.53;;
53044;SDS011;38930;52.766;6.884;2022-12-18T10:46:37;12.20;;;6.72;;
53044;SDS011;38930;52.766;6.884;2022-12-18T10:49:03;9.35;;;6.38;;
53044;SDS011;38930;52.766;6.884;2022-12-18T10:54:05;13.73;;;7.38;;
53044;SDS011;38930;52.766;6.884;2022-12-18T10:56:38;10.10;;;6.55;;
53044;SDS011;38930;52.766;6.884;2022-12-18T10:59:04;9.23;;;6.25;;
53044;SDS011;38930;52.766;6.884;2022-12-18T11:01:48;11.48;;;6.70;;
53044;SDS011;38930;52.766;6.884;2022-12-18T11:04:23;13.65;;;8.05;;
53044;SDS011;38930;52.766;6.884;2022-12-18T11:09:20;9.50;;;6.80;;
53044;SDS011;38930;52.766;6.884;2022-12-18T11:11:58;12.77;;;6.75;;
53044;SDS011;38930;52.766;6.884;2022-12-18T11:16:52;13.65;;;7.43;;
53044;SDS011;38930;52.766;6.884;2022-12-18T11:22:16;11.85;;;7.32;;
53044;SDS011;38930;52.766;6.884;2022-12-18T11:24:53;12.93;;;7.07;;
53044;SDS011;38930;52.766;6.884;2022-12-18T11:27:22;12.32;;;6.85;;
53044;SDS011;38930;52.766;6.884;2022-12-18T11:29:49;10.55;;;6.78;;
53044;SDS011;38930;52.766;6.884;2022-12-18T11:37:39;12.98;;;7.90;;
53044;SDS011;38930;52.766;6.884;2022-12-18T11:40:14;12.23;;;6.85;;
53044;SDS011;38930;52.766;6.884;2022-12-18T11:42:53;10.18;;;6.88;;
53044;SDS011;38930;52.766;6.884;2022-12-18T11:45:26;10.57;;;7.32;;
53044;SDS011;38930;52.766;6.884;2022-12-18T11:48:14;10.63;;;7.65;;
53044;SDS011;38930;52.766;6.884;2022-12-18T11:50:51;12.10;;;7.10;;
53044;SDS011;38930;52.766;6.884;2022-12-18T11:53:19;14.15;;;7.40;;
53044;SDS011;38930;52.766;6.884;2022-12-18T11:56:00;13.07;;;7.97;;
53044;SDS011;38930;52.766;6.884;2022-12-18T12:01:50;10.40;;;7.28;;
53044;SDS011;38930;52.766;6.884;2022-12-18T12:09:28;9.82;;;6.47;;
53044;SDS011;38930;52.766;6.884;2022-12-18T12:18:08;11.10;;;6.70;;
53044;SDS011;38930;52.766;6.884;2022-12-18T12:26:10;10.70;;;6.32;;
53044;SDS011;38930;52.766;6.884;2022-12-18T12:31:15;11.20;;;6.85;;
53044;SDS011;38930;52.766;6.884;2022-12-18T12:33:52;10.55;;;7.25;;
53044;SDS011;38930;52.766;6.884;2022-12-18T12:39:42;12.48;;;7.22;;
53044;SDS011;38930;52.766;6.884;2022-12-18T12:42:15;11.48;;;7.25;;
53044;SDS011;38930;52.766;6.884;2022-12-18T12:47:40;11.07;;;7.50;;
53044;SDS011;38930;52.766;6.884;2022-12-18T12:50:16;13.02;;;7.38;;
53044;SDS011;38930;52.766;6.884;2022-12-18T12:52:45;9.60;;;6.55;;
53044;SDS011;38930;52.766;6.884;2022-12-18T12:55:23;10.55;;;6.60;;
53044;SDS011;38930;52.766;6.884;2022-12-18T13:00:25;12.73;;;7.60;;
53044;SDS011;38930;52.766;6.884;2022-12-18T13:03:02;11.90;;;7.40;;
53044;SDS011;38930;52.766;6.884;2022-12-18T13:05:50;12.15;;;7.22;;
53044;SDS011;38930;52.766;6.884;2022-12-18T13:08:30;13.70;;;7.63;;
53044;SDS011;38930;52.766;6.884;2022-12-18T13:10:58;11.68;;;7.28;;
53044;SDS011;38930;52.766;6.884;2022-12-18T13:13:53;12.82;;;7.25;;
53044;SDS011;38930;52.766;6.884;2022-12-18T13:16:21;12.98;;;8.13;;
53044;SDS011;38930;52.766;6.884;2022-12-18T13:18:50;11.77;;;7.78;;
53044;SDS011;38930;52.766;6.884;2022-12-18T13:21:50;15.32;;;8.07;;
53044;SDS011;38930;52.766;6.884;2022-12-18T13:24:23;13.43;;;7.35;;
53044;SDS011;38930;52.766;6.884;2022-12-18T13:26:51;13.75;;;7.85;;
53044;SDS011;38930;52.766;6.884;2022-12-18T13:29:40;13.98;;;7.07;;
53044;SDS011;38930;52.766;6.884;2022-12-18T13:32:23;14.50;;;7.57;;
53044;SDS011;38930;52.766;6.884;2022-12-18T13:37:52;12.05;;;7.55;;
53044;SDS011;38930;52.766;6.884;2022-12-18T13:43:13;11.98;;;7.25;;
53044;SDS011;38930;52.766;6.884;2022-12-18T13:45:46;11.65;;;7.45;;
53044;SDS011;38930;52.766;6.884;2022-12-18T13:48:26;11.15;;;7.30;;
53044;SDS011;38930;52.766;6.884;2022-12-18T13:53:23;12.55;;;7.53;;
53044;SDS011;38930;52.766;6.884;2022-12-18T13:55:55;11.18;;;6.65;;
53044;SDS011;38930;52.766;6.884;2022-12-18T13:58:21;13.48;;;7.45;;
53044;SDS011;38930;52.766;6.884;2022-12-18T14:00:46;10.77;;;7.63;;
53044;SDS011;38930;52.766;6.884;2022-12-18T14:03:25;12.27;;;7.60;;
53044;SDS011;38930;52.766;6.884;2022-12-18T14:06:03;14.43;;;8.05;;
53044;SDS011;38930;52.766;6.884;2022-12-18T14:08:33;13.48;;;8.27;;
53044;SDS011;38930;52.766;6.884;2022-12-18T14:11:02;11.40;;;7.47;;
53044;SDS011;38930;52.766;6.884;2022-12-18T14:15:57;11.57;;;7.72;;
53044;SDS011;38930;52.766;6.884;2022-12-18T14:20:59;17.35;;;8.32;;
53044;SDS011;38930;52.766;6.884;2022-12-18T14:26:03;18.13;;;8.52;;
53044;SDS011;38930;52.766;6.884;2022-12-18T14:28:48;16.08;;;8.77;;
53044;SDS011;38930;52.766;6.884;2022-12-18T14:31:19;13.80;;;8.48;;
53044;SDS011;38930;52.766;6.884;2022-12-18T14:33:45;12.90;;;8.25;;
53044;SDS011;38930;52.766;6.884;2022-12-18T14:36:13;13.85;;;7.38;;
53044;SDS011;38930;52.766;6.884;2022-12-18T14:38:47;12.82;;;8.23;;
53044;SDS011;38930;52.766;6.884;2022-12-18T14:41:18;12.88;;;8.05;;
53044;SDS011;38930;52.766;6.884;2022-12-18T14:43:49;12.02;;;7.45;;
53044;SDS011;38930;52.766;6.884;2022-12-18T14:46:27;13.60;;;8.30;;
53044;SDS011;38930;52.766;6.884;2022-12-18T14:48:57;11.63;;;8.57;;
53044;SDS011;38930;52.766;6.884;2022-12-18T14:51:26;14.55;;;9.05;;
53044;SDS011;38930;52.766;6.884;2022-12-18T14:53:57;14.23;;;8.30;;
53044;SDS011;38930;52.766;6.884;2022-12-18T14:59:02;14.90;;;7.95;;
53044;SDS011;38930;52.766;6.884;2022-12-18T15:04:02;18.15;;;9.60;;
53044;SDS011;38930;52.766;6.884;2022-12-18T15:08:57;13.60;;;8.75;;
53044;SDS011;38930;52.766;6.884;2022-12-18T15:17:00;16.67;;;9.48;;
53044;SDS011;38930;52.766;6.884;2022-12-18T15:19:32;18.88;;;8.95;;
53044;SDS011;38930;52.766;6.884;2022-12-18T15:22:02;16.67;;;9.18;;
53044;SDS011;38930;52.766;6.884;2022-12-18T15:24:30;12.07;;;8.40;;
53044;SDS011;38930;52.766;6.884;2022-12-18T15:26:57;14.45;;;9.07;;
53044;SDS011;38930;52.766;6.884;2022-12-18T15:29:23;14.88;;;8.75;;
53044;SDS011;38930;52.766;6.884;2022-12-18T15:32:04;12.63;;;7.97;;
53044;SDS011;38930;52.766;6.884;2022-12-18T15:34:31;14.18;;;9.50;;
53044;SDS011;38930;52.766;6.884;2022-12-18T15:36:59;14.05;;;8.65;;
53044;SDS011;38930;52.766;6.884;2022-12-18T15:39:24;14.20;;;8.43;;
53044;SDS011;38930;52.766;6.884;2022-12-18T15:41:50;13.65;;;9.25;;
53044;SDS011;38930;52.766;6.884;2022-12-18T15:44:34;13.95;;;8.70;;
53044;SDS011;38930;52.766;6.884;2022-12-18T15:47:01;14.38;;;8.45;;
53044;SDS011;38930;52.766;6.884;2022-12-18T15:49:27;14.13;;;8.82;;
53044;SDS011;38930;52.766;6.884;2022-12-18T15:51:53;15.32;;;8.90;;
53044;SDS011;38930;52.766;6.884;2022-12-18T15:54:22;15.85;;;9.43;;
53044;SDS011;38930;52.766;6.884;2022-12-18T15:57:11;11.68;;;8.35;;
53044;SDS011;38930;52.766;6.884;2022-12-18T15:59:53;15.88;;;8.95;;
53044;SDS011;38930;52.766;6.884;2022-12-18T16:02:22;14.75;;;8.18;;
53044;SDS011;38930;52.766;6.884;2022-12-18T16:04:50;14.98;;;8.43;;
53044;SDS011;38930;52.766;6.884;2022-12-18T16:07:17;15.38;;;8.68;;
53044;SDS011;38930;52.766;6.884;2022-12-18T16:09:43;12.90;;;8.88;;
53044;SDS011;38930;52.766;6.884;2022-12-18T16:12:19;16.60;;;8.98;;
53044;SDS011;38930;52.766;6.884;2022-12-18T16:17:12;15.32;;;9.05;;
53044;SDS011;38930;52.766;6.884;2022-12-18T16:19:39;16.40;;;9.38;;
53044;SDS011;38930;52.766;6.884;2022-12-18T16:22:05;13.88;;;8.90;;
53044;SDS011;38930;52.766;6.884;2022-12-18T16:24:42;15.98;;;9.05;;
53044;SDS011;38930;52.766;6.884;2022-12-18T16:27:08;18.70;;;10.35;;
53044;SDS011;38930;52.766;6.884;2022-12-18T16:29:33;13.50;;;9.25;;
53044;SDS011;38930;52.766;6.884;2022-12-18T16:32:00;16.83;;;9.80;;
53044;SDS011;38930;52.766;6.884;2022-12-18T16:34:27;16.77;;;9.38;;
53044;SDS011;38930;52.766;6.884;2022-12-18T16:36:53;14.27;;;9.00;;
53044;SDS011;38930;52.766;6.884;2022-12-18T16:39:20;14.45;;;8.68;;
53044;SDS011;38930;52.766;6.884;2022-12-18T16:41:46;17.23;;;9.88;;
53044;SDS011;38930;52.766;6.884;2022-12-18T16:44:12;14.75;;;8.90;;
53044;SDS011;38930;52.766;6.884;2022-12-18T16:46:39;16.85;;;9.18;;
53044;SDS011;38930;52.766;6.884;2022-12-18T16:49:08;17.05;;;9.98;;
53044;SDS011;38930;52.766;6.884;2022-12-18T16:51:35;17.40;;;9.23;;
53044;SDS011;38930;52.766;6.884;2022-12-18T16:54:01;14.48;;;9.05;;
53044;SDS011;38930;52.766;6.884;2022-12-18T16:56:26;15.30;;;9.77;;